< Typhoon 199717 1997 Season Typhoon 199719 >
Typhoon 199718 (BING)
General InformationTrack Information on Google MapsDetailed Wind InformationList of All Images || Disaster Info.ResourceGoogle EarthGE AnimationAtom FeedGeoJSON
Detalied Best Track (Time Zone = UTC)
Year Month Day Hour Lat. Long. Pressure (hPa) Wind (kt) Class Image Chart
1997 8 26 06 10.9 158.8 1006 0 2 Image Chart
1997 8 26 12 10.8 156.6 1006 0 2 Image Chart
1997 8 26 18 10.8 154.6 1006 0 2 Image Chart
1997 8 27 00 12.2 153.8 1006 0 2 Image Chart
1997 8 27 06 12.5 152.4 1004 0 2 Image Chart
1997 8 27 12 12.4 151.8 1004 0 2 Image Chart
1997 8 27 18 12.1 150.8 1004 0 2 Image Chart
1997 8 28 00 12.0 149.4 1004 0 2 Image Chart
1997 8 28 06 12.3 148.3 1004 0 2 Image Chart
1997 8 28 12 12.6 147.6 1002 0 2 Image Chart
1997 8 28 18 12.9 146.4 1002 0 2 Image Chart
1997 8 29 00 13.3 145.4 1002 0 2 Image Chart
1997 8 29 06 14.2 144.1 1000 0 2 Image Chart
1997 8 29 12 14.6 142.6 996 35 3 Image Chart
1997 8 29 18 15.0 141.0 992 40 3 Image Chart
1997 8 30 00 15.5 139.5 992 40 3 Image Chart
1997 8 30 06 16.1 138.9 990 45 3 Image Chart
1997 8 30 12 16.5 138.6 985 50 4 Image Chart
1997 8 30 18 17.0 138.5 985 50 4 Image Chart
1997 8 31 00 17.8 138.4 980 55 4 Image Chart
1997 8 31 06 18.7 138.5 975 60 4 Image Chart
1997 8 31 12 19.9 138.7 970 65 5 Image Chart
1997 8 31 18 21.2 139.1 965 70 5 Image Chart
1997 9 1 00 22.5 139.3 955 75 5 Image Chart
1997 9 1 06 23.9 139.0 945 85 5 Image Chart
1997 9 1 12 25.1 139.1 940 85 5 Image Chart
1997 9 1 18 26.2 138.6 940 85 5 Image Chart
1997 9 2 00 27.1 138.2 940 85 5 Image Chart
1997 9 2 06 28.0 138.4 940 85 5 Image Chart
1997 9 2 12 28.9 138.7 940 85 5 Image Chart
1997 9 2 15 29.4 138.9 940 85 5 Image Chart
1997 9 2 18 30.0 139.4 945 85 5 Image Chart
1997 9 2 21 30.5 140.0 945 85 5 Image Chart
1997 9 3 00 31.0 140.5 950 80 5 Image Chart
1997 9 3 03 31.7 141.3 950 80 5 Image Chart
1997 9 3 06 32.3 142.1 955 75 5 Image Chart
1997 9 3 09 32.8 143.1 955 75 5 Image Chart
1997 9 3 12 33.5 144.2 960 75 5 Image Chart
1997 9 3 18 34.9 146.9 965 70 5 Image Chart
1997 9 4 00 36.7 149.8 965 70 5 Image Chart
1997 9 4 06 38.5 153.2 970 65 5 Image Chart
1997 9 4 12 40.3 156.5 975 60 4 Image Chart
1997 9 4 18 41.9 160.0 984 0 6 Image Chart
1997 9 5 00 44.3 163.6 992 0 6 Image Chart
1997 9 5 06 46.2 167.6 992 0 6 Image Chart
1997 9 5 12 47.7 172.2 992 0 6 Image Chart
1997 9 5 18 49.2 176.5 988 0 6 Image Chart
1997 9 6 00 50.6 181.1 980 0 6 Image Chart
Japan Meteorological Agency Best Track Data | Correction Date : 1998-01-19
< Typhoon 199717 1997 Season Typhoon 199719 >

Help